Time;durP1;ratioP1;P1;durP2;ratioP2;P2;SDS_P1;SDS_P2;PMS_P1;PMS_P2;Temp;Humidity;BMP_temperature;BMP_pressure;BME280_temperature;BME280_humidity;BME280_pressure;Samples;Min_cycle;Max_cycle;Signal;HPM_P1;HPM_P2
2021/10/12 00:04:35;;;;;;;6.78;3.83;;;;;;;-144.51;100.00;69251.94;4921099;29;20036;-81
2021/10/12 00:07:20;;;;;;;;;;;;;;;-144.51;100.00;69251.94;4921174;29;20501;-81
2021/10/12 00:10:23;;;;;;;7.38;3.25;;;;;;;-144.51;100.00;69251.94;4914628;29;19915;-81
2021/10/12 00:13:08;;;;;;;5.28;3.90;;;;;;;-144.51;100.00;69251.94;4912535;29;20048;-81
2021/10/12 00:15:53;;;;;;;9.23;4.65;;;;;;;-144.51;100.00;69251.94;4920315;29;20048;-80
2021/10/12 00:18:38;;;;;;;5.65;3.75;;;;;;;-144.51;100.00;69251.94;4920613;29;20051;-81
2021/10/12 00:21:23;;;;;;;7.15;4.15;;;;;;;-144.51;100.00;69251.94;4921623;29;20044;-82
2021/10/12 00:24:10;;;;;;;8.90;3.65;;;;;;;-144.51;100.00;69251.94;4904911;29;20045;-82
2021/10/12 00:27:13;;;;;;;9.55;3.65;;;;;;;-144.51;100.00;69251.94;4922086;29;20048;-81
2021/10/12 00:29:58;;;;;;;7.80;3.92;;;;;;;-144.51;100.00;69251.94;4908234;29;20040;-82
2021/10/12 00:33:03;;;;;;;7.35;4.22;;;;;;;-144.51;100.00;69251.94;4920581;29;20489;-82
2021/10/12 00:35:48;;;;;;;8.10;3.92;;;;;;;-144.51;100.00;69251.94;4911241;29;20040;-81
2021/10/12 00:38:32;;;;;;;7.97;4.18;;;;;;;-144.51;100.00;69251.94;4907459;29;20044;-81
2021/10/12 00:41:20;;;;;;;9.57;7.05;;;;;;;-144.51;100.00;69251.94;4920284;29;20048;-81
2021/10/12 00:44:08;;;;;;;16.05;7.47;;;;;;;-144.51;100.00;69251.94;4907455;29;20048;-82
2021/10/12 00:46:53;;;;;;;13.85;7.13;;;;;;;-144.51;100.00;69251.94;4920218;29;20040;-82
2021/10/12 00:49:38;;;;;;;11.88;6.75;;;;;;;-144.51;100.00;69251.94;4901181;29;20487;-81
2021/10/12 00:52:22;;;;;;;15.82;6.25;;;;;;;-144.51;100.00;69251.94;4908708;29;20040;-81
2021/10/12 00:55:07;;;;;;;15.27;6.20;;;;;;;-144.51;100.00;69251.94;4905846;29;20706;-81
2021/10/12 00:57:52;;;;;;;;;;;;;;;-144.51;100.00;69251.94;4908624;29;20036;-81
2021/10/12 01:00:38;;;;;;;14.15;5.22;;;;;;;-144.51;100.00;69251.94;4914924;29;20304;-82
2021/10/12 01:06:26;;;;;;;7.47;3.90;;;;;;;-144.51;100.00;69251.94;4916238;29;20040;-82
2021/10/12 01:09:11;;;;;;;;;;;;;;;-144.51;100.00;69251.94;4917946;29;20043;-82
2021/10/12 01:11:55;;;;;;;9.95;4.43;;;;;;;-144.51;100.00;69251.94;4913804;29;19919;-82
2021/10/12 01:14:40;;;;;;;;;;;;;;;-144.51;100.00;69251.94;4908489;29;20513;-82
2021/10/12 01:17:25;;;;;;;8.95;4.10;;;;;;;-144.51;100.00;69251.94;4918544;29;19915;-81
2021/10/12 01:20:12;;;;;;;7.95;4.55;;;;;;;-144.51;100.00;69251.94;4920182;29;20048;-81
2021/10/12 01:22:57;;;;;;;8.85;4.00;;;;;;;-144.51;100.00;69251.94;4919166;29;20044;-82
2021/10/12 01:25:41;;;;;;;8.00;5.07;;;;;;;-144.51;100.00;69251.94;4901360;29;20048;-81
2021/10/12 01:28:28;;;;;;;;;;;;;;;-144.51;100.00;69251.94;4916147;29;20044;-82
2021/10/12 01:31:24;;;;;;;8.70;5.10;;;;;;;-144.51;100.00;69251.94;4904738;29;20273;-81
2021/10/12 01:37:21;;;;;;;12.88;6.88;;;;;;;-144.51;100.00;69251.94;4918305;29;20044;-82
2021/10/12 01:40:07;;;;;;;14.73;6.90;;;;;;;-144.51;100.00;69251.94;4909321;29;20044;-80
2021/10/12 01:42:57;;;;;;;15.60;7.80;;;;;;;-144.51;100.00;69251.94;4921573;29;20036;-82
2021/10/12 01:45:42;;;;;;;11.32;6.38;;;;;;;-144.51;100.00;69251.94;4917551;29;20048;-82
2021/10/12 01:48:26;;;;;;;12.18;6.47;;;;;;;-144.51;100.00;69251.94;4913121;29;20044;-82
2021/10/12 01:51:11;;;;;;;;;;;;;;;-144.51;100.00;69251.94;4924286;29;20481;-82
2021/10/12 01:53:56;;;;;;;6.75;4.30;;;;;;;-144.51;100.00;69251.94;4922893;29;19919;-82
2021/10/12 01:56:41;;;;;;;;;;;;;;;-144.51;100.00;69251.94;4916696;29;20052;-82
2021/10/12 01:59:25;;;;;;;5.30;3.70;;;;;;;-144.51;100.00;69251.94;4911782;29;19915;-81
2021/10/12 02:02:10;;;;;;;15.43;5.25;;;;;;;-144.51;100.00;69251.94;4927179;29;20040;-81
2021/10/12 02:04:55;;;;;;;10.70;4.75;;;;;;;-144.51;100.00;69251.94;4910993;29;20517;-81
2021/10/12 02:07:58;;;;;;;5.22;3.00;;;;;;;-144.51;100.00;69251.94;4919108;29;20048;-81
2021/10/12 02:11:02;;;;;;;7.15;3.70;;;;;;;-144.51;100.00;69251.94;4903810;29;20048;-81
2021/10/12 02:13:47;;;;;;;9.60;5.43;;;;;;;-144.51;100.00;69251.94;4923960;23;20057;-64
2021/10/12 02:16:32;;;;;;;8.65;4.22;;;;;;;-144.51;100.00;69251.94;4873530;29;20049;-64
2021/10/12 02:19:17;;;;;;;;;;;;;;;-144.51;100.00;69251.94;4889221;29;20040;-64
2021/10/12 02:22:02;;;;;;;6.93;3.27;;;;;;;-144.51;100.00;69251.94;4887251;29;19916;-63
2021/10/12 02:24:47;;;;;;;8.45;4.70;;;;;;;-144.51;100.00;69251.94;4893062;29;20281;-64
2021/10/12 02:27:32;;;;;;;13.77;7.22;;;;;;;-144.51;100.00;69251.94;4874411;29;20060;-63
2021/10/12 02:30:17;;;;;;;9.63;4.45;;;;;;;-144.51;100.00;69251.94;4896206;29;20429;-64
2021/10/12 02:33:02;;;;;;;12.02;6.63;;;;;;;-144.51;100.00;69251.94;4894365;29;20408;-63
2021/10/12 02:35:47;;;;;;;;;;;;;;;-144.51;100.00;69251.94;4886688;29;20048;-64
2021/10/12 02:38:31;;;;;;;17.00;6.35;;;;;;;-144.51;100.00;69251.94;4886939;29;19916;-64
2021/10/12 02:41:16;;;;;;;12.40;6.45;;;;;;;-144.51;100.00;69251.94;4888962;29;20049;-64
2021/10/12 02:44:01;;;;;;;;;;;;;;;-144.51;100.00;69251.94;4888359;29;20106;-63
2021/10/12 02:46:45;;;;;;;10.98;6.00;;;;;;;-144.51;100.00;69251.94;4887027;29;19916;-64
2021/10/12 02:49:30;;;;;;;13.40;5.18;;;;;;;-144.51;100.00;69251.94;4861787;29;20454;-62
2021/10/12 02:52:15;;;;;;;10.00;6.85;;;;;;;-144.51;100.00;69251.94;4864206;29;20378;-63
2021/10/12 02:55:01;;;;;;;11.70;4.90;;;;;;;-144.51;100.00;69251.94;4889634;29;20060;-63
2021/10/12 02:57:46;;;;;;;13.18;6.35;;;;;;;-144.51;100.00;69251.94;4887826;29;20501;-63
2021/10/12 03:00:32;;;;;;;14.02;4.93;;;;;;;-144.51;100.00;69251.94;4879084;29;20489;-63
2021/10/12 03:03:17;;;;;;;11.27;6.40;;;;;;;-144.51;100.00;69251.94;4890771;29;20037;-64
2021/10/12 03:09:43;;;;;;;9.07;5.90;;;;;;;-144.51;100.00;69251.94;4892438;29;20045;-63
2021/10/12 03:12:27;;;;;;;10.32;6.40;;;;;;;-144.51;100.00;69251.94;4893217;29;20037;-63
2021/10/12 03:15:12;;;;;;;13.80;6.20;;;;;;;-144.51;100.00;69251.94;4889810;29;20049;-63
2021/10/12 03:17:57;;;;;;;15.27;4.82;;;;;;;-144.51;100.00;69251.94;4898675;29;20053;-63
2021/10/12 03:20:42;;;;;;;;;;;;;;;-144.51;100.00;69251.94;4899056;29;20045;-63
2021/10/12 03:23:27;;;;;;;16.77;6.60;;;;;;;-144.51;100.00;69251.94;4890758;29;19915;-63
2021/10/12 03:26:33;;;;;;;10.75;5.20;;;;;;;-144.51;100.00;69251.94;4885913;29;20052;-64
2021/10/12 03:29:18;;;;;;;13.38;5.25;;;;;;;-144.51;100.00;69251.94;4898488;29;20048;-63
2021/10/12 03:32:04;;;;;;;4.30;2.88;;;;;;;-144.51;100.00;69251.94;4898337;29;20048;-64
2021/10/12 03:34:49;;;;;;;9.85;5.05;;;;;;;-144.51;100.00;69251.94;4888779;29;20048;-63
2021/10/12 03:37:34;;;;;;;11.52;5.10;;;;;;;-144.51;100.00;69251.94;4892914;29;20045;-63
2021/10/12 03:40:38;;;;;;;12.82;4.70;;;;;;;-144.51;100.00;69251.94;4886797;29;20045;-63
2021/10/12 03:43:23;;;;;;;10.38;5.22;;;;;;;-144.51;100.00;69251.94;4879701;29;20041;-62
2021/10/12 03:46:08;;;;;;;8.05;5.15;;;;;;;-144.51;100.00;69251.94;4879180;29;20057;-63
2021/10/12 03:48:53;;;;;;;8.50;4.57;;;;;;;-144.51;100.00;69251.94;4878399;29;20044;-63
2021/10/12 03:51:40;;;;;;;7.80;4.75;;;;;;;-144.51;100.00;69251.94;4879507;29;20405;-63
2021/10/12 03:54:25;;;;;;;12.32;6.40;;;;;;;-144.51;100.00;69251.94;4879349;29;20045;-64
2021/10/12 03:57:10;;;;;;;;;;;;;;;-144.51;100.00;69251.94;4879701;29;20053;-63
2021/10/12 03:59:54;;;;;;;14.57;4.78;;;;;;;-144.51;100.00;69251.94;4885902;29;19916;-63
2021/10/12 04:02:39;;;;;;;6.32;4.32;;;;;;;-144.51;100.00;69251.94;4887476;29;20432;-64
2021/10/12 04:05:24;;;;;;;;;;;;;;;-144.51;100.00;69251.94;4898135;29;20388;-63
2021/10/12 04:08:09;;;;;;;9.50;4.70;;;;;;;-144.51;100.00;69251.94;4897776;29;19915;-63
2021/10/12 04:10:54;;;;;;;8.35;4.47;;;;;;;-144.51;100.00;69251.94;4877880;29;20830;-63
2021/10/12 04:13:39;;;;;;;6.88;4.63;;;;;;;-144.51;100.00;69251.94;4874507;29;20649;-64
2021/10/12 04:16:24;;;;;;;;;;;;;;;-144.51;100.00;69251.94;4879730;29;20049;-63
2021/10/12 04:19:08;;;;;;;16.00;6.70;;;;;;;-144.51;100.00;69251.94;4886610;29;19924;-63
2021/10/12 04:21:53;;;;;;;12.85;6.05;;;;;;;-144.51;100.00;69251.94;4878503;29;20053;-64
2021/10/12 04:24:38;;;;;;;11.43;5.70;;;;;;;-144.51;100.00;69251.94;4881513;29;20041;-64
2021/10/12 04:27:23;;;;;;;11.52;6.40;;;;;;;-144.51;100.00;69251.94;4879049;29;20045;-63
2021/10/12 04:30:09;;;;;;;14.63;5.95;;;;;;;-144.51;100.00;69251.94;4875895;29;20041;-63
2021/10/12 04:32:53;;;;;;;15.23;6.07;;;;;;;-144.51;100.00;69251.94;4886118;29;20040;-63
2021/10/12 04:35:38;;;;;;;;;;;;;;;-144.51;100.00;69251.94;4886034;29;20504;-63
2021/10/12 04:38:42;;;;;;;10.80;5.72;;;;;;;-144.51;100.00;69251.94;4879496;29;19924;-64
2021/10/12 04:44:50;;;;;;;13.50;7.43;;;;;;;-144.51;100.00;69251.94;4877045;29;20033;-67
2021/10/12 04:47:35;;;;;;;12.63;7.13;;;;;;;-144.51;100.00;69251.94;4880854;29;20505;-62
2021/10/12 04:50:20;;;;;;;13.50;7.50;;;;;;;-144.51;100.00;69251.94;4881169;29;20071;-62
2021/10/12 04:53:05;;;;;;;;;;;;;;;-144.51;100.00;69251.94;4888778;29;20509;-61
2021/10/12 04:55:49;;;;;;;12.23;6.80;;;;;;;-144.51;100.00;69251.94;4884461;29;19919;-63
2021/10/12 04:58:34;;;;;;;12.50;6.85;;;;;;;-144.51;100.00;69251.94;4885825;29;20045;-62
2021/10/12 05:01:19;;;;;;;14.23;5.63;;;;;;;-144.51;100.00;69251.94;4883512;29;20041;-63
2021/10/12 05:04:04;;;;;;;13.50;6.50;;;;;;;-144.51;100.00;69251.94;4877060;29;20041;-62
2021/10/12 05:06:49;;;;;;;9.98;5.30;;;;;;;-144.51;100.00;69251.94;4878920;29;20053;-62
2021/10/12 05:09:34;;;;;;;13.93;6.45;;;;;;;-144.51;100.00;69251.94;4877046;29;20041;-62
2021/10/12 05:12:37;;;;;;;20.80;6.97;;;;;;;-144.51;100.00;69251.94;4873196;29;20045;-64
2021/10/12 05:15:28;;;;;;;14.57;6.57;;;;;;;-144.51;100.00;69251.94;4880128;29;20053;-63
2021/10/12 05:18:25;;;;;;;14.68;7.43;;;;;;;-144.51;100.00;69251.94;4884670;29;20502;-62
2021/10/12 05:21:10;;;;;;;24.52;8.48;;;;;;;-144.51;100.00;69251.94;4876196;29;20057;-63
2021/10/12 05:24:14;;;;;;;12.27;7.53;;;;;;;-144.51;100.00;69251.94;4887962;29;20044;-62
2021/10/12 05:26:59;;;;;;;13.70;6.63;;;;;;;-144.51;100.00;69251.94;4873476;29;20513;-63
2021/10/12 05:29:44;;;;;;;14.10;5.00;;;;;;;-144.51;100.00;69251.94;4881268;29;20045;-61
2021/10/12 05:32:29;;;;;;;11.13;7.07;;;;;;;-144.51;100.00;69251.94;4871694;29;20041;-62
2021/10/12 05:35:14;;;;;;;10.35;5.32;;;;;;;-144.51;100.00;69251.94;4897473;29;20041;-62
2021/10/12 05:37:59;;;;;;;7.60;5.00;;;;;;;-144.51;100.00;69251.94;4889287;29;20049;-63
2021/10/12 05:41:03;;;;;;;14.98;6.28;;;;;;;-144.51;100.00;69251.94;4879669;29;20049;-62
2021/10/12 05:43:47;;;;;;;20.73;7.05;;;;;;;-144.51;100.00;69251.94;4886569;29;20041;-63
2021/10/12 05:46:32;;;;;;;19.85;6.97;;;;;;;-144.51;100.00;69251.94;4892686;29;20044;-63
2021/10/12 05:49:17;;;;;;;11.65;5.47;;;;;;;-144.51;100.00;69251.94;4900561;29;20048;-62
2021/10/12 05:52:23;;;;;;;18.95;7.07;;;;;;;-144.51;100.00;69251.94;4900009;29;20290;-63
2021/10/12 05:55:15;;;;;;;14.10;7.10;;;;;;;-144.51;100.00;69251.94;4900296;29;20052;-62
2021/10/12 05:58:12;;;;;;;19.98;7.07;;;;;;;-144.51;100.00;69251.94;4900112;29;20480;-62
2021/10/12 06:00:57;;;;;;;13.73;6.28;;;;;;;-144.51;100.00;69251.94;4900076;29;20044;-62
2021/10/12 06:03:42;;;;;;;13.23;7.57;;;;;;;-144.51;100.00;69251.94;4900056;29;20036;-62
2021/10/12 06:06:27;;;;;;;19.73;5.95;;;;;;;-144.51;100.00;69251.94;4899845;29;20480;-62
2021/10/12 06:09:12;;;;;;;19.05;7.45;;;;;;;-144.51;100.00;69251.94;4900141;29;20048;-62
2021/10/12 06:18:04;;;;;;;19.65;7.30;;;;;;;-144.51;100.00;69251.94;4899671;29;20048;-63
2021/10/12 06:20:49;;;;;;;13.27;7.45;;;;;;;-144.51;100.00;69251.94;4900844;29;20508;-63
2021/10/12 06:23:34;;;;;;;17.75;8.00;;;;;;;-144.51;100.00;69251.94;4899681;29;20070;-63
2021/10/12 06:26:19;;;;;;;12.82;5.10;;;;;;;-144.51;100.00;69251.94;4899502;29;20040;-62
2021/10/12 06:29:04;;;;;;;9.50;4.95;;;;;;;-144.51;100.00;69251.94;4901227;29;20412;-62
2021/10/12 06:34:53;;;;;;;8.98;3.80;;;;;;;-144.51;100.00;69251.94;4901646;29;19916;-63
2021/10/12 06:37:56;;;;;;;9.05;3.30;;;;;;;-144.51;100.00;69251.94;4899378;29;20493;-62
2021/10/12 06:40:42;;;;;;;4.72;2.55;;;;;;;-144.51;100.00;69251.94;4899476;29;20044;-61
2021/10/12 06:43:26;;;;;;;5.45;2.50;;;;;;;-144.51;100.00;69251.94;4901507;29;20040;-62
2021/10/12 06:46:11;;;;;;;7.35;2.25;;;;;;;-144.51;100.00;69251.94;4899098;29;20052;-62
2021/10/12 06:48:56;;;;;;;;;;;;;;;-144.51;100.00;69251.94;4899658;29;20393;-61
2021/10/12 06:51:43;;;;;;;16.88;6.40;;;;;;;-144.51;100.00;69251.94;4899175;29;20580;-63
2021/10/12 06:54:28;;;;;;;23.40;7.25;;;;;;;-144.51;100.00;69251.94;4899003;29;20044;-63
2021/10/12 06:57:12;;;;;;;25.35;6.55;;;;;;;-144.51;100.00;69251.94;4898885;29;20052;-61
2021/10/12 06:59:57;;;;;;;18.20;8.13;;;;;;;-144.51;100.00;69251.94;4899023;29;20044;-63
2021/10/12 07:05:50;;;;;;;21.38;9.68;;;;;;;-144.51;100.00;69251.94;4899179;29;20040;-63
2021/10/12 07:08:35;;;;;;;13.73;6.13;;;;;;;-144.51;100.00;69251.94;4898938;29;20053;-63
2021/10/12 07:11:19;;;;;;;25.83;8.75;;;;;;;-144.51;100.00;69251.94;4898764;29;20052;-62
2021/10/12 07:14:04;;;;;;;23.25;6.82;;;;;;;-144.51;100.00;69251.94;4898603;29;20049;-62
2021/10/12 07:16:49;;;;;;;;;;;;;;;-144.51;100.00;69251.94;4898972;29;20053;-61
2021/10/12 07:22:37;;;;;;;17.73;8.60;;;;;;;-144.51;100.00;69251.94;4898671;29;20044;-63
2021/10/12 07:28:44;;;;;;;19.80;9.13;;;;;;;-144.51;100.00;69251.94;4898395;29;20044;-62
2021/10/12 07:31:29;;;;;;;;;;;;;;;-144.51;100.00;69251.94;4899027;29;20409;-62
2021/10/12 07:34:14;;;;;;;15.15;7.68;;;;;;;-144.51;100.00;69251.94;4898066;29;19915;-63
2021/10/12 07:36:59;;;;;;;13.43;6.68;;;;;;;-144.51;100.00;69251.94;4902784;29;20056;-62
2021/10/12 07:39:44;;;;;;;;;;;;;;;-144.51;100.00;69251.94;4898627;29;20048;-62
2021/10/12 07:42:28;;;;;;;19.77;8.13;;;;;;;-144.51;100.00;69251.94;4898249;29;19915;-63
2021/10/12 07:45:13;;;;;;;;;;;;;;;-144.51;100.00;69251.94;4898762;29;20067;-61
2021/10/12 07:47:58;;;;;;;20.65;10.02;;;;;;;-144.51;100.00;69251.94;4897408;29;19915;-62
2021/10/12 07:50:43;;;;;;;14.15;5.72;;;;;;;-144.51;100.00;69251.94;4898187;29;20044;-63
2021/10/12 07:53:29;;;;;;;32.92;11.15;;;;;;;-144.51;100.00;69251.94;4898003;29;20056;-62
2021/10/12 07:56:28;;;;;;;23.63;10.77;;;;;;;-144.51;100.00;69251.94;4900238;29;20052;-63
2021/10/12 07:59:12;;;;;;;29.13;10.60;;;;;;;-144.51;100.00;69251.94;4897917;29;20056;-63
2021/10/12 08:01:57;;;;;;;20.05;8.73;;;;;;;-144.51;100.00;69251.94;4897965;29;20048;-64
2021/10/12 08:04:42;;;;;;;;;;;;;;;-144.51;100.00;69251.94;4898294;29;20040;-62
2021/10/12 08:07:27;;;;;;;15.00;8.63;;;;;;;-144.51;100.00;69251.94;4897668;29;19915;-62
2021/10/12 08:10:12;;;;;;;;;;;;;;;-144.51;100.00;69251.94;4898135;29;20045;-62
2021/10/12 08:13:00;;;;;;;23.15;10.52;;;;;;;-144.51;100.00;69251.94;4922465;23;19927;-83
2021/10/12 08:15:53;;;;;;;15.15;9.70;;;;;;;-144.51;100.00;69251.94;4880097;29;20056;-83
2021/10/12 08:18:39;;;;;;;17.77;10.23;;;;;;;-144.51;100.00;69251.94;4897665;29;20041;-83
2021/10/12 08:21:28;;;;;;;27.33;10.48;;;;;;;-144.51;100.00;69251.94;4899558;29;20044;-83
2021/10/12 08:24:15;;;;;;;31.45;10.73;;;;;;;-144.51;100.00;69251.94;4903313;29;20070;-83
2021/10/12 08:27:00;;;;;;;22.35;10.10;;;;;;;-144.51;100.00;69251.94;4894561;29;20053;-83
2021/10/12 08:29:45;;;;;;;;;;;;;;;-144.51;100.00;69251.94;4902124;29;20660;-83
2021/10/12 08:32:30;;;;;;;22.45;9.05;;;;;;;-144.51;100.00;69251.94;4903026;29;19916;-81
2021/10/12 08:35:14;;;;;;;;;;;;;;;-144.51;100.00;69251.94;4902523;29;20049;-83
2021/10/12 08:41:07;;;;;;;17.90;9.65;;;;;;;-144.51;100.00;69251.94;4904856;29;20044;-81
2021/10/12 08:43:54;;;;;;;27.23;9.98;;;;;;;-144.51;100.00;69251.94;4902463;29;20040;-83
2021/10/12 08:46:40;;;;;;;25.42;10.40;;;;;;;-144.51;100.00;69251.94;4901754;29;20048;-83
2021/10/12 08:49:25;;;;;;;21.08;9.90;;;;;;;-144.51;100.00;69251.94;4906497;29;20441;-83
2021/10/12 08:55:14;;;;;;;26.13;12.27;;;;;;;-144.51;100.00;69251.94;4905248;29;20498;-81
2021/10/12 08:57:59;;;;;;;22.30;11.65;;;;;;;-144.51;100.00;69251.94;4902994;29;20048;-83
2021/10/12 09:00:44;;;;;;;;;;;;;;;-144.51;100.00;69251.94;4902912;29;20045;-81
2021/10/12 09:03:51;;;;;;;28.83;11.75;;;;;;;-144.51;100.00;69251.94;4904402;29;19915;-82
2021/10/12 09:06:36;;;;;;;24.30;11.60;;;;;;;-144.51;100.00;69251.94;4916349;29;20687;-83
2021/10/12 09:09:35;;;;;;;30.20;11.38;;;;;;;-144.51;100.00;69251.94;4906292;29;20044;-83
2021/10/12 09:12:40;;;;;;;25.63;10.35;;;;;;;-144.51;100.00;69251.94;4896936;29;20037;-83
2021/10/12 09:15:25;;;;;;;29.35;11.27;;;;;;;-144.51;100.00;69251.94;4892471;29;20044;-82
2021/10/12 09:18:10;;;;;;;29.90;12.38;;;;;;;-144.51;100.00;69251.94;4903564;29;20048;-83
2021/10/12 09:20:54;;;;;;;20.30;9.73;;;;;;;-144.51;100.00;69251.94;4907836;29;20045;-83
2021/10/12 09:23:40;;;;;;;;;;;;;;;-144.51;100.00;69251.94;4883625;29;20410;-83
2021/10/12 09:32:16;;;;;;;18.77;10.90;;;;;;;-144.51;100.00;69251.94;4906423;29;20044;-82
2021/10/12 09:35:02;;;;;;;22.80;11.52;;;;;;;-144.51;100.00;69251.94;4891377;29;20049;-83
2021/10/12 09:38:06;;;;;;;19.90;9.95;;;;;;;-144.51;100.00;69251.94;4896529;29;20052;-82
2021/10/12 09:41:09;;;;;;;40.78;12.23;;;;;;;-144.51;100.00;69251.94;4892861;29;20044;-83
2021/10/12 09:44:11;;;;;;;16.52;9.95;;;;;;;-144.51;100.00;69251.94;4882744;29;20040;-83
2021/10/12 09:47:23;;;;;;;18.80;10.20;;;;;;;-144.51;100.00;69251.94;4902606;29;20044;-83
2021/10/12 09:50:10;;;;;;;16.70;8.68;;;;;;;-144.51;100.00;69251.94;4904276;29;20045;-82
2021/10/12 09:52:54;;;;;;;21.92;10.00;;;;;;;-144.51;100.00;69251.94;4902216;29;20056;-83
2021/10/12 09:55:39;;;;;;;13.13;7.70;;;;;;;-144.51;100.00;69251.94;4903329;29;20223;-84
2021/10/12 09:58:45;;;;;;;21.92;9.75;;;;;;;-144.51;100.00;69251.94;4896498;29;20052;-81
2021/10/12 10:01:48;;;;;;;19.02;8.63;;;;;;;-144.51;100.00;69251.94;4906552;29;20040;-81
2021/10/12 10:04:33;;;;;;;15.35;8.02;;;;;;;-144.51;100.00;69251.94;4908507;29;20041;-81
2021/10/12 10:07:25;;;;;;;13.50;7.10;;;;;;;-144.51;100.00;69251.94;4901326;29;20040;-83
2021/10/12 10:10:09;;;;;;;16.70;7.93;;;;;;;-144.51;100.00;69251.94;4910755;29;20040;-81
2021/10/12 10:12:55;;;;;;;;;;;;;;;-144.51;100.00;69251.94;4899407;29;20040;-79
2021/10/12 10:15:39;;;;;;;17.48;7.28;;;;;;;-144.51;100.00;69251.94;4914497;29;19915;-81
2021/10/12 10:18:25;;;;;;;14.80;7.75;;;;;;;-144.51;100.00;69251.94;4920000;29;20048;-81
2021/10/12 10:21:12;;;;;;;14.32;7.07;;;;;;;-144.51;100.00;69251.94;4927650;29;20044;-82
2021/10/12 10:24:23;;;;;;;9.95;5.65;;;;;;;-144.51;100.00;69251.94;4913623;29;20033;-81
2021/10/12 10:27:29;;;;;;;14.82;6.18;;;;;;;-144.51;100.00;69251.94;4909663;29;20041;-82
2021/10/12 10:30:14;;;;;;;15.45;6.13;;;;;;;-144.51;100.00;69251.94;4896834;29;20040;-80
2021/10/12 10:32:59;;;;;;;;;;;;;;;-144.51;100.00;69251.94;4902573;29;20040;-82
2021/10/12 10:35:46;;;;;;;10.70;5.45;;;;;;;-144.51;100.00;69251.94;4913025;29;19915;-82
2021/10/12 10:38:32;;;;;;;9.13;4.40;;;;;;;-144.51;100.00;69251.94;4906763;29;20501;-81
2021/10/12 10:41:19;;;;;;;9.02;4.63;;;;;;;-144.51;100.00;69251.94;4917343;29;20041;-82
2021/10/12 10:44:04;;;;;;;10.02;4.85;;;;;;;-144.51;100.00;69251.94;4912686;29;20044;-81
2021/10/12 10:47:08;;;;;;;6.32;3.92;;;;;;;-144.51;100.00;69251.94;4912802;29;20047;-81
2021/10/12 10:50:14;;;;;;;11.85;3.88;;;;;;;-144.51;100.00;69251.94;4929532;29;20045;-82
2021/10/12 10:52:59;;;;;;;;;;;;;;;-144.51;100.00;69251.94;4913477;29;20497;-82
2021/10/12 10:56:04;;;;;;;7.55;4.13;;;;;;;-144.51;100.00;69251.94;4900319;29;19915;-81
2021/10/12 10:59:27;;;;;;;9.43;4.22;;;;;;;-144.51;100.00;69251.94;4889674;29;20053;-82
2021/10/12 11:02:45;;;;;;;10.38;4.18;;;;;;;-144.51;100.00;69251.94;4904297;29;20052;-81
2021/10/12 11:05:43;;;;;;;8.77;4.60;;;;;;;-144.51;100.00;69251.94;4873826;29;20045;-80
2021/10/12 11:09:03;;;;;;;11.30;6.13;;;;;;;-144.51;100.00;69251.94;4886037;29;20048;-74
2021/10/12 11:11:47;;;;;;;14.02;6.18;;;;;;;-144.51;100.00;69251.94;4887778;29;20508;-75
2021/10/12 11:14:32;;;;;;;12.02;4.85;;;;;;;-144.51;100.00;69251.94;4892226;29;20036;-74
2021/10/12 11:17:17;;;;;;;12.55;5.72;;;;;;;-144.51;100.00;69251.94;4892946;29;20040;-74
2021/10/12 11:20:20;;;;;;;15.10;6.35;;;;;;;-144.51;100.00;69251.94;4897494;29;20048;-74
2021/10/12 11:23:06;;;;;;;10.25;5.78;;;;;;;-144.51;100.00;69251.94;4893127;29;20683;-75
2021/10/12 11:25:56;;;;;;;26.00;6.47;;;;;;;-144.51;100.00;69251.94;4901405;29;20437;-74
2021/10/12 11:28:46;;;;;;;8.45;4.28;;;;;;;-144.51;100.00;69251.94;4893603;29;20036;-75
2021/10/12 11:31:31;;;;;;;8.43;4.95;;;;;;;-144.51;100.00;69251.94;4898159;29;20044;-74
2021/10/12 11:34:24;;;;;;;;;;;;;;;-144.51;100.00;69251.94;4904857;29;20413;-74
2021/10/12 11:37:27;;;;;;;8.27;4.63;;;;;;;-144.51;100.00;69251.94;4901028;29;19919;-75
2021/10/12 11:40:14;;;;;;;12.02;6.57;;;;;;;-144.51;100.00;69251.94;4899182;29;20044;-75
2021/10/12 11:42:59;;;;;;;8.48;4.57;;;;;;;-144.51;100.00;69251.94;4898962;29;20044;-75
2021/10/12 11:45:58;;;;;;;11.25;5.25;;;;;;;-144.51;100.00;69251.94;4892920;29;20041;-75
2021/10/12 11:48:43;;;;;;;14.63;5.35;;;;;;;-144.51;100.00;69251.94;4894224;29;20044;-75
2021/10/12 11:51:32;;;;;;;13.73;4.85;;;;;;;-144.51;100.00;69251.94;4900782;29;20041;-75
2021/10/12 11:54:28;;;;;;;9.60;4.50;;;;;;;-144.51;100.00;69251.94;4903851;29;20037;-75
2021/10/12 11:57:20;;;;;;;7.72;5.57;;;;;;;-144.51;100.00;69251.94;4892356;29;20044;-75
2021/10/12 12:00:05;;;;;;;7.68;5.43;;;;;;;-144.51;100.00;69251.94;4902677;29;20045;-75
2021/10/12 12:02:57;;;;;;;9.60;4.78;;;;;;;-144.51;100.00;69251.94;4897869;29;20052;-76
2021/10/12 12:05:52;;;;;;;10.40;5.65;;;;;;;-144.51;100.00;69251.94;4896269;29;20052;-75
2021/10/12 12:08:41;;;;;;;8.50;4.68;;;;;;;-144.51;100.00;69251.94;4906832;29;20036;-75
2021/10/12 12:11:27;;;;;;;12.82;4.78;;;;;;;-144.51;100.00;69251.94;4896886;29;20052;-75
2021/10/12 12:14:13;;;;;;;14.05;6.20;;;;;;;-144.51;100.00;69251.94;4896269;29;20414;-75
2021/10/12 12:17:08;;;;;;;12.90;6.60;;;;;;;-144.51;100.00;69251.94;4885526;29;20057;-75
2021/10/12 12:19:54;;;;;;;10.43;6.78;;;;;;;-144.51;100.00;69251.94;4892998;29;20041;-75
2021/10/12 12:22:42;;;;;;;22.70;8.63;;;;;;;-144.51;100.00;69251.94;4878775;29;20053;-75
2021/10/12 12:25:27;;;;;;;10.45;6.28;;;;;;;-144.51;100.00;69251.94;4897710;29;20044;-78
2021/10/12 12:28:21;;;;;;;9.75;6.40;;;;;;;-144.51;100.00;69251.94;4897253;29;20048;-79
2021/10/12 12:31:26;;;;;;;14.35;6.95;;;;;;;-144.51;100.00;69251.94;4901627;29;20049;-78
2021/10/12 12:34:32;;;;;;;11.18;7.18;;;;;;;-144.51;100.00;69251.94;4889272;29;20041;-79
2021/10/12 12:37:25;;;;;;;18.90;8.18;;;;;;;-144.51;100.00;69251.94;4892573;29;20048;-78
2021/10/12 12:40:31;;;;;;;15.10;7.55;;;;;;;-144.51;100.00;69251.94;4900726;29;20048;-79
2021/10/12 12:43:29;;;;;;;19.02;7.53;;;;;;;-144.51;100.00;69251.94;4883291;29;20044;-79
2021/10/12 12:46:17;;;;;;;20.65;8.18;;;;;;;-144.51;100.00;69251.94;4896766;29;20045;-79
2021/10/12 12:49:14;;;;;;;14.88;8.07;;;;;;;-144.51;100.00;69251.94;4891341;29;20036;-79
2021/10/12 12:51:59;;;;;;;14.88;8.55;;;;;;;-144.51;100.00;69251.94;4907431;29;20052;-78
2021/10/12 12:54:46;;;;;;;17.30;9.50;;;;;;;-144.51;100.00;69251.94;4907387;29;20426;-78
2021/10/12 12:57:31;;;;;;;18.33;8.07;;;;;;;-144.51;100.00;69251.94;4909596;29;20053;-78
2021/10/12 13:00:15;;;;;;;19.85;7.88;;;;;;;-144.51;100.00;69251.94;4904114;29;20049;-78
2021/10/12 13:03:00;;;;;;;;;;;;;;;-144.51;100.00;69251.94;4886490;29;20052;-79
2021/10/12 13:05:45;;;;;;;18.23;8.60;;;;;;;-144.51;100.00;69251.94;4886174;29;20393;-79
2021/10/12 13:08:54;;;;;;;13.40;8.70;;;;;;;-144.51;100.00;69251.94;4888869;29;20045;-78
2021/10/12 13:11:40;;;;;;;15.65;9.55;;;;;;;-144.51;100.00;69251.94;4885319;29;20041;-79
2021/10/12 13:17:28;;;;;;;14.00;7.95;;;;;;;-144.51;100.00;69251.94;4912864;29;20045;-79
2021/10/12 13:20:14;;;;;;;;;;;;;;;-144.51;100.00;69251.94;4885975;29;20422;-79
2021/10/12 13:22:59;;;;;;;11.32;7.63;;;;;;;-144.51;100.00;69251.94;4884030;29;20376;-78
2021/10/12 13:28:48;;;;;;;19.45;9.15;;;;;;;-144.51;100.00;69251.94;4916244;29;19923;-79
2021/10/12 13:31:36;;;;;;;15.50;8.95;;;;;;;-144.51;100.00;69251.94;4885588;29;20049;-79
2021/10/12 13:34:21;;;;;;;17.58;9.85;;;;;;;-144.51;100.00;69251.94;4885700;29;20510;-79
2021/10/12 13:37:05;;;;;;;19.13;10.15;;;;;;;-144.51;100.00;69251.94;4902268;29;20061;-80
2021/10/12 13:40:09;;;;;;;;;;;;;;;-144.51;100.00;69251.94;4887546;29;20049;-80
2021/10/12 13:42:53;;;;;;;18.35;8.80;;;;;;;-144.51;100.00;69251.94;4884844;29;20381;-81